createdAt,value
2017-04-03T00:01:15.097Z,23.24
2017-04-03T00:02:15.035Z,23.24
2017-04-03T00:03:14.982Z,23.2
2017-04-03T00:04:14.910Z,23.13
2017-04-03T00:05:14.893Z,23.23
2017-04-03T00:06:14.788Z,23.21
2017-04-03T00:07:14.725Z,23.21
2017-04-03T00:08:14.664Z,23.25
2017-04-03T00:09:14.601Z,23.23
2017-04-03T00:10:14.541Z,23.23
2017-04-03T00:11:14.485Z,23.21
2017-04-03T00:12:14.118Z,23.2
2017-04-03T00:13:14.353Z,23.21
2017-04-03T00:14:14.293Z,23.23
2017-04-03T00:15:14.233Z,23.2
2017-04-03T00:16:14.170Z,23.23
2017-04-03T00:17:14.109Z,23.24
2017-04-03T00:18:14.048Z,23.23
2017-04-03T00:19:13.684Z,23.21
2017-04-03T00:20:13.629Z,23.21
2017-04-03T00:21:13.861Z,23.2
2017-04-03T00:22:13.800Z,23.18
2017-04-03T00:23:13.738Z,23.23
2017-04-03T00:24:13.675Z,23.23
2017-04-03T00:25:13.616Z,23.23
2017-04-03T00:26:13.252Z,23.23
2017-04-03T00:27:13.490Z,23.18
2017-04-03T00:28:13.129Z,23.18
2017-04-03T00:29:13.071Z,23.18
2017-04-03T00:30:13.304Z,23.25
2017-04-03T00:31:13.245Z,23.23
2017-04-03T00:32:12.884Z,23.21
2017-04-03T00:33:13.121Z,23.21
2017-04-03T00:34:12.757Z,23.23
2017-04-03T00:35:13.001Z,23.25
2017-04-03T00:36:12.945Z,23.2
2017-04-03T00:37:12.577Z,23.23
2017-04-03T00:38:12.815Z,23.25
2017-04-03T00:39:12.751Z,23.25
2017-04-03T00:40:12.692Z,23.21
2017-04-03T00:41:12.627Z,23.24
2017-04-03T00:42:12.573Z,23.2
2017-04-03T00:43:12.503Z,23.18
2017-04-03T00:44:12.475Z,23.15
2017-04-03T00:45:12.382Z,23.2
2017-04-03T00:46:12.024Z,23.2
2017-04-03T00:47:12.259Z,23.21
2017-04-03T00:48:11.899Z,23.23
2017-04-03T00:49:12.137Z,23.17
2017-04-03T00:50:12.071Z,23.25
2017-04-03T00:51:12.012Z,23.15
2017-04-03T00:52:11.950Z,23.17
2017-04-03T00:53:11.292Z,23.15
2017-04-03T00:54:11.826Z,23.13
2017-04-03T00:55:11.763Z,23.15
2017-04-03T00:56:11.403Z,23.18
2017-04-03T00:57:11.640Z,23.2
2017-04-03T00:58:11.281Z,23.17
2017-04-03T00:59:11.516Z,23.23
2017-04-03T01:00:11.459Z,23.17
2017-04-03T01:01:11.396Z,23.2
2017-04-03T01:02:11.333Z,23.21
2017-04-03T01:03:11.270Z,23.18
2017-04-03T01:04:11.210Z,23.2
2017-04-03T01:05:11.148Z,23.27
2017-04-03T01:06:11.087Z,23.18
2017-04-03T01:07:10.725Z,23.23
2017-04-03T01:08:11.105Z,23.18
2017-04-03T01:09:10.901Z,23.23
2017-04-03T01:10:10.843Z,23.25
2017-04-03T01:11:10.491Z,23.21
2017-04-03T01:12:10.116Z,23.2
2017-04-03T01:13:10.757Z,23.23
2017-04-03T01:14:10.597Z,23.21
2017-04-03T01:15:10.531Z,23.21
2017-04-03T01:16:10.470Z,23.2
2017-04-03T01:17:10.413Z,23.27
2017-04-03T01:18:10.347Z,23.25
2017-04-03T01:19:10.288Z,23.21
2017-04-03T01:20:10.224Z,23.18
2017-04-03T01:21:10.202Z,23.23
2017-04-03T01:22:10.102Z,23.21
2017-04-03T01:23:09.738Z,23.24
2017-04-03T01:24:09.676Z,23.21
2017-04-03T01:25:09.917Z,23.18
2017-04-03T01:26:09.850Z,23.24
2017-04-03T01:27:09.794Z,23.25
2017-04-03T01:28:09.730Z,23.21
2017-04-03T01:29:09.666Z,23.2
2017-04-03T01:30:09.609Z,23.2
2017-04-03T01:31:09.549Z,23.18
2017-04-03T01:32:09.482Z,23.24
2017-04-03T01:33:09.423Z,23.17
2017-04-03T01:34:09.360Z,23.18
2017-04-03T01:35:08.999Z,23.23
2017-04-03T01:36:08.940Z,23.18
2017-04-03T01:37:08.874Z,23.21
2017-04-03T01:38:08.825Z,23.2
2017-04-03T01:39:08.753Z,23.2
2017-04-03T01:40:08.694Z,23.17
2017-04-03T01:41:08.630Z,23.2
2017-04-03T01:42:08.868Z,23.24
2017-04-03T01:43:08.804Z,23.31
2017-04-03T01:44:08.447Z,23.17
2017-04-03T01:45:08.682Z,23.18
2017-04-03T01:46:08.618Z,23.17
2017-04-03T01:47:08.561Z,23.25
2017-04-03T01:48:08.496Z,23.17
2017-04-03T01:49:08.439Z,23.12
2017-04-03T01:50:08.375Z,23.23
2017-04-03T01:51:08.312Z,23.24
2017-04-03T01:52:07.950Z,23.15
2017-04-03T01:53:08.189Z,23.18
2017-04-03T01:54:08.124Z,23.21
2017-04-03T01:55:08.066Z,23.23
2017-04-03T01:56:08.000Z,23.24
2017-04-03T01:57:07.938Z,23.2
2017-04-03T01:58:07.881Z,23.23
2017-04-03T01:59:07.817Z,23.2
2017-04-03T02:00:07.759Z,23.15
2017-04-03T02:01:07.696Z,23.23
2017-04-03T02:02:07.633Z,23.21
2017-04-03T02:03:07.572Z,23.27
2017-04-03T02:04:07.507Z,23.2
2017-04-03T02:05:07.446Z,23.21
2017-04-03T02:06:07.385Z,23.21
2017-04-03T02:07:07.332Z,23.17
2017-04-03T02:08:07.269Z,23.23
2017-04-03T02:09:07.201Z,23.23
2017-04-03T02:10:07.142Z,23.23
2017-04-03T02:11:07.075Z,23.2
2017-04-03T02:12:07.015Z,23.15
2017-04-03T02:13:06.957Z,23.15
2017-04-03T02:14:06.894Z,23.2
2017-04-03T02:15:06.834Z,23.18
2017-04-03T02:16:06.771Z,23.2
2017-04-03T02:17:06.708Z,23.23
2017-04-03T02:18:06.648Z,23.2
2017-04-03T02:19:06.582Z,23.21
2017-04-03T02:20:06.536Z,23.25
2017-04-03T02:21:06.463Z,23.18
2017-04-03T02:22:06.403Z,23.24
2017-04-03T02:23:06.337Z,23.21
2017-04-03T02:24:06.275Z,23.23
2017-04-03T02:25:06.214Z,23.21
2017-04-03T02:26:06.153Z,23.18
2017-04-03T02:27:06.091Z,23.13
2017-04-03T02:28:05.733Z,23.2
2017-04-03T02:29:05.971Z,23.13
2017-04-03T02:30:05.907Z,23.2
2017-04-03T02:31:05.842Z,23.21
2017-04-03T02:32:05.786Z,23.24
2017-04-03T02:33:05.722Z,23.12
2017-04-03T02:34:05.658Z,23.18
2017-04-03T02:35:05.298Z,23.2
2017-04-03T02:36:05.536Z,23.21
2017-04-03T02:37:05.473Z,23.13
2017-04-03T02:38:05.412Z,23.15
2017-04-03T02:39:05.357Z,23.23
2017-04-03T02:40:05.300Z,23.17
2017-04-03T02:41:05.230Z,23.13
2017-04-03T02:42:05.172Z,23.13
2017-04-03T02:43:05.145Z,23.1
2017-04-03T02:44:04.743Z,23.18
2017-04-03T02:45:04.980Z,23.18
2017-04-03T02:46:04.940Z,23.21
2017-04-03T02:47:04.856Z,23.18
2017-04-03T02:48:04.795Z,23.18
2017-04-03T02:49:04.731Z,23.2
2017-04-03T02:50:04.671Z,23.18
2017-04-03T02:51:04.611Z,23.2
2017-04-03T02:52:04.545Z,23.24
2017-04-03T02:53:04.191Z,23.17
2017-04-03T02:54:04.426Z,23.13
2017-04-03T02:55:04.370Z,23.25
2017-04-03T02:56:04.304Z,23.13
2017-04-03T02:57:04.237Z,23.2
2017-04-03T02:58:04.176Z,23.2
2017-04-03T02:59:04.115Z,23.13
2017-04-03T03:00:04.052Z,23.13
2017-04-03T03:01:03.994Z,23.2
2017-04-03T03:02:03.934Z,23.21
2017-04-03T03:03:03.868Z,23.21
2017-04-03T03:04:03.805Z,23.13
2017-04-03T03:05:03.744Z,23.15
2017-04-03T03:06:03.684Z,23.13
2017-04-03T03:07:03.660Z,23.17
2017-04-03T03:08:03.564Z,23.2
2017-04-03T03:09:03.500Z,23.15
2017-04-03T03:10:03.439Z,23.15
2017-04-03T03:11:03.376Z,23.17
2017-04-03T03:12:03.316Z,23.2
2017-04-03T03:13:03.253Z,23.15
2017-04-03T03:14:03.190Z,23.17
2017-04-03T03:15:02.827Z,23.12
2017-04-03T03:16:03.066Z,23.13
2017-04-03T03:17:03.008Z,23.2
2017-04-03T03:18:02.952Z,23.13
2017-04-03T03:19:02.919Z,23.13
2017-04-03T03:20:02.823Z,23.15
2017-04-03T03:21:02.759Z,23.1
2017-04-03T03:22:02.696Z,23.2
2017-04-03T03:23:02.641Z,23.18
2017-04-03T03:24:02.572Z,23.18
2017-04-03T03:25:02.510Z,23.18
2017-04-03T03:26:02.449Z,23.13
2017-04-03T03:27:02.390Z,23.18
2017-04-03T03:28:02.326Z,23.13
2017-04-03T03:29:02.267Z,23.13
2017-04-03T03:30:02.204Z,23.18
2017-04-03T03:31:02.140Z,23.2
2017-04-03T03:32:02.080Z,23.17
2017-04-03T03:33:02.019Z,23.18
2017-04-03T03:34:01.958Z,23.18
2017-04-03T03:35:01.897Z,23.15
2017-04-03T03:36:01.832Z,23.2
2017-04-03T03:37:01.769Z,23.13
2017-04-03T03:38:01.707Z,23.2
2017-04-03T03:39:01.649Z,23.2
2017-04-03T03:40:01.285Z,23.15
2017-04-03T03:41:01.524Z,23.15
2017-04-03T03:42:01.463Z,23.15
2017-04-03T03:43:01.101Z,23.1
2017-04-03T03:44:01.338Z,23.18
2017-04-03T03:45:01.280Z,23.13
2017-04-03T03:46:01.214Z,23.06
2017-04-03T03:47:01.157Z,23.12
2017-04-03T03:48:01.092Z,23.18
2017-04-03T03:49:01.028Z,23.15
2017-04-03T03:50:00.966Z,23.13
2017-04-03T03:51:00.906Z,23.15
2017-04-03T03:52:00.844Z,23.1
2017-04-03T03:53:00.784Z,23.13
2017-04-03T03:54:00.721Z,23.13
2017-04-03T03:55:00.658Z,23.13
2017-04-03T03:56:00.597Z,23.15
2017-04-03T03:57:00.548Z,23.17
2017-04-03T03:58:00.475Z,23.13
2017-04-03T03:59:00.414Z,23.15
2017-04-03T04:00:00.050Z,23.17
2017-04-03T04:01:00.291Z,23.18
2017-04-03T04:02:00.227Z,23.09
2017-04-03T04:03:00.165Z,23.12
2017-04-03T04:04:00.102Z,23.12
2017-04-03T04:05:00.043Z,23.13
2017-04-03T04:05:59.978Z,23.1
2017-04-03T04:06:59.617Z,23.06
2017-04-03T04:07:59.857Z,23.06
2017-04-03T04:08:59.793Z,23.1
2017-04-03T04:09:59.731Z,23.1
2017-04-03T04:10:59.670Z,23.13
2017-04-03T04:11:59.609Z,23.09
2017-04-03T04:12:59.549Z,23.1
2017-04-03T04:13:59.489Z,23.09
2017-04-03T04:14:59.421Z,23.08
2017-04-03T04:15:59.366Z,23.2
2017-04-03T04:16:59.300Z,23.18
2017-04-03T04:17:58.935Z,23.15
2017-04-03T04:18:59.218Z,23.12
2017-04-03T04:19:59.128Z,23.09
2017-04-03T04:20:59.052Z,23.12
2017-04-03T04:21:58.993Z,23.17
2017-04-03T04:22:58.932Z,23.17
2017-04-03T04:23:58.868Z,23.13
2017-04-03T04:24:58.806Z,23.12
2017-04-03T04:25:58.744Z,23.08
2017-04-03T04:26:58.679Z,23.08
2017-04-03T04:27:58.619Z,23.13
2017-04-03T04:28:58.557Z,23.12
2017-04-03T04:29:58.498Z,23.18
2017-04-03T04:30:58.437Z,23.12
2017-04-03T04:31:58.374Z,23.12
2017-04-03T04:32:58.312Z,23.1
2017-04-03T04:33:58.250Z,23.05
2017-04-03T04:34:58.187Z,23.1
2017-04-03T04:35:58.127Z,23.03
2017-04-03T04:36:58.103Z,23.1
2017-04-03T04:37:58.001Z,23.06
2017-04-03T04:38:57.942Z,23.12
2017-04-03T04:39:57.878Z,23.08
2017-04-03T04:40:57.818Z,23.05
2017-04-03T04:41:57.753Z,23.08
2017-04-03T04:42:57.696Z,23.12
2017-04-03T04:43:57.630Z,23.13
2017-04-03T04:44:57.574Z,23.1
2017-04-03T04:45:57.512Z,23.1
2017-04-03T04:46:57.447Z,23.05
2017-04-03T04:47:57.384Z,23.06
2017-04-03T04:48:57.324Z,23.17
2017-04-03T04:49:57.259Z,23.15
2017-04-03T04:50:57.297Z,23.08
2017-04-03T04:51:57.135Z,23.06
2017-04-03T04:52:57.104Z,23.08
2017-04-03T04:53:57.012Z,23.09
2017-04-03T04:54:56.968Z,23.08
2017-04-03T04:55:57.003Z,23.05
2017-04-03T04:56:56.842Z,23.03
2017-04-03T04:57:56.765Z,23.09
2017-04-03T04:58:56.705Z,23.13
2017-04-03T04:59:56.672Z,23.09
2017-04-03T05:00:56.588Z,23.09
2017-04-03T05:01:56.518Z,23.06
2017-04-03T05:02:56.154Z,23.13
2017-04-03T05:03:56.407Z,23.03
2017-04-03T05:04:56.329Z,23.06
2017-04-03T05:05:56.274Z,23.09
2017-04-03T05:06:56.207Z,23.05
2017-04-03T05:07:56.148Z,23.08
2017-04-03T05:08:56.085Z,23.03
2017-04-03T05:09:56.028Z,23.06
2017-04-03T05:10:55.962Z,23.1
2017-04-03T05:11:55.598Z,23.03
2017-04-03T05:12:55.843Z,23.05
2017-04-03T05:13:55.775Z,23.03
2017-04-03T05:14:55.756Z,23.1
2017-04-03T05:15:55.657Z,23.08
2017-04-03T05:16:55.593Z,23.08
2017-04-03T05:17:55.530Z,23.09
2017-04-03T05:18:55.464Z,23.12
2017-04-03T05:19:55.405Z,23.09
2017-04-03T05:20:55.350Z,23.06
2017-04-03T05:21:55.279Z,23.12
2017-04-03T05:22:55.219Z,23.06
2017-04-03T05:23:55.162Z,23.08
2017-04-03T05:24:54.793Z,23.02
2017-04-03T05:25:55.041Z,23.1
2017-04-03T05:26:54.974Z,23.06
2017-04-03T05:27:54.907Z,23.03
2017-04-03T05:28:54.846Z,23.05
2017-04-03T05:29:54.786Z,23.02
2017-04-03T05:30:54.432Z,23.03
2017-04-03T05:31:54.365Z,23.12
2017-04-03T05:32:54.616Z,23
2017-04-03T05:33:54.538Z,23.09
2017-04-03T05:34:54.488Z,23.1
2017-04-03T05:35:54.444Z,23.03
2017-04-03T05:36:54.053Z,23.05
2017-04-03T05:37:54.292Z,23.03
2017-04-03T05:38:54.229Z,23.02
2017-04-03T05:39:54.164Z,23.02
2017-04-03T05:40:54.108Z,23.05
2017-04-03T05:41:54.042Z,23.06
2017-04-03T05:42:53.986Z,23.05
2017-04-03T05:43:53.917Z,23.05
2017-04-03T05:44:53.554Z,23.06
2017-04-03T05:45:53.798Z,23.05
2017-04-03T05:46:53.735Z,23.02
2017-04-03T05:47:53.672Z,23.02
2017-04-03T05:48:53.609Z,23.02
2017-04-03T05:49:53.547Z,23.03
2017-04-03T05:50:53.486Z,23.02
2017-04-03T05:51:53.424Z,23.06
2017-04-03T05:52:53.363Z,23.05
2017-04-03T05:53:53.300Z,23.02
2017-04-03T05:54:53.236Z,22.99
2017-04-03T05:55:53.178Z,22.98
2017-04-03T05:56:53.117Z,23.03
2017-04-03T05:57:53.053Z,23.06
2017-04-03T05:58:52.990Z,23.02
2017-04-03T05:59:52.940Z,23.06
2017-04-03T06:00:52.582Z,23.05
2017-04-03T06:01:52.527Z,23.06
2017-04-03T06:02:52.455Z,23
2017-04-03T06:03:52.681Z,23.09
2017-04-03T06:04:52.618Z,23.05
2017-04-03T06:05:52.589Z,23.02
2017-04-03T06:06:52.511Z,22.99
2017-04-03T06:07:52.445Z,23.03
2017-04-03T06:08:52.378Z,23.03
2017-04-03T06:09:52.311Z,23.02
2017-04-03T06:10:51.946Z,23.08
2017-04-03T06:11:52.194Z,23.02
2017-04-03T06:12:52.120Z,23.05
2017-04-03T06:13:52.062Z,23.05
2017-04-03T06:14:51.699Z,23.02
2017-04-03T06:15:51.939Z,23.02
2017-04-03T06:16:51.875Z,23.02
2017-04-03T06:17:51.813Z,23.02
2017-04-03T06:18:51.752Z,23
2017-04-03T06:19:51.397Z,23.06
2017-04-03T06:20:51.633Z,23.02
2017-04-03T06:21:51.568Z,23.02
2017-04-03T06:22:51.504Z,23.02
2017-04-03T06:23:51.442Z,23.03
2017-04-03T06:24:51.388Z,23.09
2017-04-03T06:25:51.319Z,23.05
2017-04-03T06:26:51.264Z,23.03
2017-04-03T06:27:51.193Z,23
2017-04-03T06:28:51.132Z,23.05
2017-04-03T06:29:51.074Z,23.02
2017-04-03T06:30:51.011Z,23
2017-04-03T06:31:50.948Z,23
2017-04-03T06:32:50.887Z,23.02
2017-04-03T06:33:50.524Z,23.06
2017-04-03T06:34:50.763Z,23.02
2017-04-03T06:35:50.704Z,23.06
2017-04-03T06:36:50.638Z,23.02
2017-04-03T06:37:50.578Z,23.03
2017-04-03T06:38:50.515Z,23
2017-04-03T06:39:50.452Z,23.09
2017-04-03T06:40:50.097Z,23.05
2017-04-03T06:41:50.331Z,23
2017-04-03T06:42:50.264Z,23
2017-04-03T06:43:50.201Z,23.05
2017-04-03T06:44:50.153Z,23.05
2017-04-03T06:45:50.079Z,23.02
2017-04-03T06:46:50.019Z,23.03
2017-04-03T06:47:49.955Z,23.02
2017-04-03T06:48:49.594Z,22.98
2017-04-03T06:49:49.836Z,23.03
2017-04-03T06:50:49.771Z,22.93
2017-04-03T06:51:49.711Z,22.75
2017-04-03T06:52:49.350Z,22.8
2017-04-03T06:53:49.598Z,22.81
2017-04-03T06:54:49.521Z,22.83
2017-04-03T06:55:49.518Z,22.76
2017-04-03T06:56:49.400Z,22.63
2017-04-03T06:57:49.339Z,22.65
2017-04-03T06:58:49.285Z,22.59
2017-04-03T06:59:49.212Z,22.54
2017-04-03T07:00:49.152Z,22.6
2017-04-03T07:01:48.787Z,22.54
2017-04-03T07:02:49.028Z,22.55
2017-04-03T07:03:48.962Z,22.44
2017-04-03T07:04:48.912Z,22.48
2017-04-03T07:05:48.850Z,22.45
2017-04-03T07:06:48.501Z,22.43
2017-04-03T07:07:48.724Z,22.48
2017-04-03T07:08:48.662Z,22.44
2017-04-03T07:09:48.294Z,22.44
2017-04-03T07:10:48.529Z,22.36
2017-04-03T07:11:48.470Z,22.38
2017-04-03T07:12:48.413Z,22.25
2017-04-03T07:13:48.353Z,22.35
2017-04-03T07:14:48.279Z,22.33
2017-04-03T07:15:48.479Z,22.28
2017-04-03T07:16:48.155Z,22.23
2017-04-03T07:17:48.100Z,22.26
2017-04-03T07:18:48.035Z,22.3
2017-04-03T07:19:48.014Z,22.25
2017-04-03T07:20:47.903Z,22.35
2017-04-03T07:21:47.845Z,22.36
2017-04-03T07:22:47.776Z,22.32
2017-04-03T07:23:47.715Z,22.25
2017-04-03T07:24:47.654Z,22.26
2017-04-03T07:25:47.597Z,22.23
2017-04-03T07:26:47.530Z,22.33
2017-04-03T07:27:47.466Z,22.36
2017-04-03T07:28:47.401Z,22.32
2017-04-03T07:29:47.353Z,22.41
2017-04-03T07:30:47.286Z,22.3
2017-04-03T07:31:46.924Z,22.35
2017-04-03T07:32:46.852Z,22.28
2017-04-03T07:33:47.092Z,22.22
2017-04-03T07:34:46.729Z,22.23
2017-04-03T07:35:46.965Z,22.17
2017-04-03T07:36:46.605Z,22.23
2017-04-03T07:37:46.539Z,22.18
2017-04-03T07:38:46.776Z,22.2
2017-04-03T07:39:46.715Z,22.14
2017-04-03T07:40:46.650Z,22.08
2017-04-03T07:41:46.595Z,21.95
2017-04-03T07:42:46.525Z,21.95
2017-04-03T07:43:46.465Z,21.96
2017-04-03T07:44:46.402Z,22.06
2017-04-03T07:45:46.337Z,22.07
2017-04-03T07:46:46.485Z,22.17
2017-04-03T07:47:46.221Z,22.2
2017-04-03T07:48:46.152Z,22.11
2017-04-03T07:49:46.090Z,22.06
2017-04-03T07:50:46.025Z,22
2017-04-03T07:51:45.962Z,22.04
2017-04-03T07:52:45.902Z,21.96
2017-04-03T07:53:45.850Z,22.02
2017-04-03T07:54:45.479Z,22.02
2017-04-03T07:55:45.113Z,21.96
2017-04-03T07:56:45.349Z,21.98
2017-04-03T07:57:45.588Z,21.95
2017-04-03T07:58:45.223Z,21.96
2017-04-03T07:59:45.468Z,22.07
2017-04-03T08:00:45.400Z,22.07
2017-04-03T08:01:45.334Z,22
2017-04-03T08:02:45.271Z,21.95
2017-04-03T08:03:45.209Z,22.04
2017-04-03T08:04:45.147Z,21.96
2017-04-03T08:05:45.084Z,22.02
2017-04-03T08:06:44.718Z,21.92
2017-04-03T08:07:44.670Z,21.95
2017-04-03T08:08:44.897Z,21.96
2017-04-03T08:09:44.531Z,21.93
2017-04-03T08:10:44.471Z,21.89
2017-04-03T08:11:44.411Z,21.88
2017-04-03T08:12:44.666Z,21.82
2017-04-03T08:13:44.580Z,21.82
2017-04-03T08:14:44.218Z,21.83
2017-04-03T08:15:44.158Z,21.79
2017-04-03T08:16:44.392Z,21.83
2017-04-03T08:17:44.329Z,21.83
2017-04-03T08:18:43.966Z,21.76
2017-04-03T08:19:44.203Z,21.76
2017-04-03T08:20:43.837Z,21.77
2017-04-03T08:21:43.781Z,21.67
2017-04-03T08:22:44.010Z,21.7
2017-04-03T08:23:43.949Z,21.76
2017-04-03T08:24:43.885Z,21.72
2017-04-03T08:25:43.822Z,21.79
2017-04-03T08:26:43.763Z,21.79
2017-04-03T08:27:43.698Z,21.73
2017-04-03T08:28:43.635Z,21.75
2017-04-03T08:29:43.572Z,21.66
2017-04-03T08:30:43.614Z,21.7
2017-04-03T08:31:43.443Z,21.64
2017-04-03T08:32:43.381Z,21.66
2017-04-03T08:33:43.319Z,21.69
2017-04-03T08:34:43.257Z,21.64
2017-04-03T08:35:43.191Z,21.64
2017-04-03T08:36:43.137Z,21.7
2017-04-03T08:37:43.067Z,21.64
2017-04-03T08:38:43.002Z,21.67
2017-04-03T08:39:42.944Z,21.69
2017-04-03T08:40:42.877Z,21.72
2017-04-03T08:41:42.517Z,21.66
2017-04-03T08:42:42.750Z,21.61
2017-04-03T08:43:42.689Z,21.55
2017-04-03T08:44:42.626Z,21.67
2017-04-03T08:45:42.571Z,21.66
2017-04-03T08:46:42.497Z,21.6
2017-04-03T08:47:42.431Z,21.58
2017-04-03T08:48:42.370Z,21.61
2017-04-03T08:49:42.006Z,21.64
2017-04-03T08:50:42.259Z,21.62
2017-04-03T08:51:42.182Z,21.5
2017-04-03T08:52:42.121Z,21.51
2017-04-03T08:53:42.054Z,21.46
2017-04-03T08:54:41.993Z,21.5
2017-04-03T08:55:41.977Z,21.42
2017-04-03T08:56:41.867Z,21.42
2017-04-03T08:57:41.799Z,21.52
2017-04-03T08:58:41.440Z,21.57
2017-04-03T08:59:41.375Z,21.5
2017-04-03T09:00:41.464Z,21.54
2017-04-03T09:01:41.552Z,21.55
2017-04-03T09:02:41.486Z,21.51
2017-04-03T09:03:41.422Z,21.66
2017-04-03T09:04:41.407Z,21.69
2017-04-03T09:05:41.296Z,21.66
2017-04-03T09:06:41.236Z,21.62
2017-04-03T09:07:41.180Z,21.72
2017-04-03T09:08:41.105Z,21.7
2017-04-03T09:09:41.053Z,21.62
2017-04-03T09:10:40.678Z,21.67
2017-04-03T09:11:40.915Z,21.64
2017-04-03T09:12:40.855Z,21.6
2017-04-03T09:13:40.788Z,21.64
2017-04-03T09:14:40.724Z,21.62
2017-04-03T09:15:40.662Z,21.66
2017-04-03T09:16:40.298Z,21.67
2017-04-03T09:17:40.536Z,21.72
2017-04-03T09:18:40.474Z,21.7
2017-04-03T09:19:40.410Z,21.67
2017-04-03T09:20:40.347Z,21.75
2017-04-03T09:21:39.686Z,21.79
2017-04-03T09:22:40.218Z,21.67
2017-04-03T09:23:40.158Z,21.7
2017-04-03T09:24:39.792Z,21.77
2017-04-03T09:25:40.131Z,21.76
2017-04-03T09:26:39.969Z,21.76
2017-04-03T09:27:39.602Z,21.73
2017-04-03T09:28:39.844Z,21.66
2017-04-03T09:29:39.776Z,21.61
2017-04-03T09:30:39.665Z,21.62
2017-04-03T09:31:39.352Z,21.75
2017-04-03T09:32:39.287Z,21.7
2017-04-03T09:33:39.525Z,21.73
2017-04-03T09:34:39.462Z,21.72
2017-04-03T09:35:39.403Z,21.7
2017-04-03T09:36:39.335Z,21.72
2017-04-03T09:37:39.278Z,21.75
2017-04-03T09:38:39.210Z,21.73
2017-04-03T09:39:39.147Z,21.82
2017-04-03T09:40:39.086Z,21.66
2017-04-03T09:41:39.028Z,21.83
2017-04-03T09:42:38.969Z,21.85
2017-04-03T09:43:38.895Z,21.85
2017-04-03T09:44:38.831Z,21.88
2017-04-03T09:45:38.167Z,21.85
2017-04-03T09:46:38.411Z,21.89
2017-04-03T09:47:38.640Z,21.93
2017-04-03T09:48:38.585Z,21.98
2017-04-03T09:49:38.513Z,21.99
2017-04-03T09:50:38.154Z,22.02
2017-04-03T09:51:38.389Z,22.04
2017-04-03T09:52:38.327Z,22.08
2017-04-03T09:53:37.963Z,22.06
2017-04-03T09:54:38.406Z,22.13
2017-04-03T09:55:38.136Z,22.08
2017-04-03T09:56:38.079Z,22.11
2017-04-03T09:57:37.713Z,22.1
2017-04-03T09:58:37.648Z,22.13
2017-04-03T09:59:37.889Z,22.04
2017-04-03T10:00:37.832Z,22.14
2017-04-03T10:01:37.760Z,22.14
2017-04-03T10:02:37.699Z,22.15
2017-04-03T10:03:37.636Z,22.18
2017-04-03T10:04:37.571Z,22.23
2017-04-03T10:05:37.510Z,22.18
2017-04-03T10:06:37.146Z,22.23
2017-04-03T10:07:37.389Z,22.2
2017-04-03T10:08:37.021Z,22.26
2017-04-03T10:09:37.260Z,22.15
2017-04-03T10:10:37.201Z,22.28
2017-04-03T10:11:37.131Z,22.33
2017-04-03T10:12:37.069Z,22.25
2017-04-03T10:13:37.006Z,22.26
2017-04-03T10:14:36.943Z,22.22
2017-04-03T10:15:36.882Z,22.32
2017-04-03T10:16:36.522Z,22.28
2017-04-03T10:17:36.461Z,22.28
2017-04-03T10:18:36.694Z,22.3
2017-04-03T10:19:36.332Z,22.32
2017-04-03T10:20:36.569Z,22.39
2017-04-03T10:21:36.507Z,22.35
2017-04-03T10:22:36.144Z,22.35
2017-04-03T10:23:36.383Z,22.39
2017-04-03T10:24:36.317Z,22.36
2017-04-03T10:25:35.955Z,22.39
2017-04-03T10:26:35.894Z,22.38
2017-04-03T10:27:35.830Z,22.41
2017-04-03T10:28:35.767Z,22.43
2017-04-03T10:29:36.009Z,22.41
2017-04-03T10:30:35.943Z,22.36
2017-04-03T10:31:35.883Z,22.36
2017-04-03T10:32:35.817Z,22.36
2017-04-03T10:33:35.459Z,22.41
2017-04-03T10:34:35.692Z,22.47
2017-04-03T10:35:35.333Z,22.41
2017-04-03T10:36:35.568Z,22.47
2017-04-03T10:37:35.509Z,22.53
2017-04-03T10:38:35.151Z,22.44
2017-04-03T10:39:35.385Z,22.44
2017-04-03T10:40:35.322Z,22.47
2017-04-03T10:41:35.258Z,22.48
2017-04-03T10:42:35.192Z,22.53
2017-04-03T10:43:35.134Z,22.54
2017-04-03T10:44:34.778Z,22.39
2017-04-03T10:45:35.007Z,22.51
2017-04-03T10:46:34.652Z,22.53
2017-04-03T10:47:34.881Z,22.48
2017-04-03T10:48:34.823Z,22.53
2017-04-03T10:49:34.769Z,22.5
2017-04-03T10:50:34.696Z,22.39
2017-04-03T10:51:34.631Z,22.36
2017-04-03T10:52:34.569Z,22.33
2017-04-03T10:53:34.515Z,22.23
2017-04-03T10:54:34.443Z,22.23
2017-04-03T10:55:34.385Z,22.15
2017-04-03T10:56:34.319Z,22.17
2017-04-03T10:57:34.262Z,22.08
2017-04-03T10:58:34.195Z,22.1
2017-04-03T10:59:34.133Z,22.06
2017-04-03T11:00:34.075Z,22.07
2017-04-03T11:01:34.010Z,22.08
2017-04-03T11:02:33.945Z,22.14
2017-04-03T11:03:33.887Z,22.2
2017-04-03T11:04:33.818Z,22.2
2017-04-03T11:05:33.767Z,22.25
2017-04-03T11:06:33.696Z,22.26
2017-04-03T11:07:33.636Z,22.33
2017-04-03T11:08:33.568Z,22.33
2017-04-03T11:09:33.506Z,22.43
2017-04-03T11:10:33.447Z,22.41
2017-04-03T11:11:33.430Z,22.39
2017-04-03T11:12:33.317Z,22.35
2017-04-03T11:13:33.260Z,22.39
2017-04-03T11:14:32.919Z,22.43
2017-04-03T11:15:33.132Z,22.36
2017-04-03T11:16:33.068Z,22.47
2017-04-03T11:17:33.021Z,22.39
2017-04-03T11:18:32.953Z,22.48
2017-04-03T11:19:32.883Z,22.45
2017-04-03T11:20:32.821Z,22.43
2017-04-03T11:21:32.760Z,22.44
2017-04-03T11:22:32.693Z,22.48
2017-04-03T11:23:32.637Z,22.45
2017-04-03T11:24:32.613Z,22.48
2017-04-03T11:25:32.506Z,22.47
2017-04-03T11:26:32.447Z,22.5
2017-04-03T11:27:32.386Z,22.5
2017-04-03T11:28:32.320Z,22.55
2017-04-03T11:29:32.258Z,22.54
2017-04-03T11:30:32.194Z,22.57
2017-04-03T11:31:32.145Z,22.51
2017-04-03T11:32:32.080Z,22.57
2017-04-03T11:33:32.017Z,22.54
2017-04-03T11:34:31.957Z,22.57
2017-04-03T11:35:31.887Z,22.44
2017-04-03T11:36:31.822Z,22.44
2017-04-03T11:37:31.758Z,22.41
2017-04-03T11:38:31.738Z,22.38
2017-04-03T11:39:32.056Z,22.38
2017-04-03T11:40:31.571Z,22.26
2017-04-03T11:41:31.546Z,22.25
2017-04-03T11:42:31.446Z,22.23
2017-04-03T11:43:31.383Z,22.3
2017-04-03T11:44:31.349Z,22.18
2017-04-03T11:45:31.258Z,22.23
2017-04-03T11:46:31.198Z,22.2
2017-04-03T11:47:31.075Z,22.17
2017-04-03T11:48:31.087Z,22.22
2017-04-03T11:49:30.707Z,22.15
2017-04-03T11:50:30.950Z,22.18
2017-04-03T11:51:30.885Z,22.2
2017-04-03T11:52:30.846Z,22.14
2017-04-03T11:53:30.962Z,22.15
2017-04-03T11:54:30.711Z,22.13
2017-04-03T11:55:30.635Z,22.13
2017-04-03T11:56:30.588Z,22.17
2017-04-03T11:57:30.514Z,22.14
2017-04-03T11:58:30.460Z,22.18
2017-04-03T11:59:30.418Z,22.15
2017-04-03T12:00:30.328Z,22.07
2017-04-03T12:01:30.272Z,22.08
2017-04-03T12:02:30.214Z,22.07
2017-04-03T12:03:30.174Z,22.06
2017-04-03T12:04:30.071Z,21.99
2017-04-03T12:05:30.035Z,22.06
2017-04-03T12:06:29.644Z,21.99
2017-04-03T12:07:29.578Z,21.96
2017-04-03T12:08:29.883Z,22.07
2017-04-03T12:09:29.774Z,21.98
2017-04-03T12:10:29.390Z,21.92
2017-04-03T12:11:29.629Z,21.96
2017-04-03T12:12:29.565Z,21.89
2017-04-03T12:13:29.505Z,21.98
2017-04-03T12:14:29.437Z,22.07
2017-04-03T12:15:29.376Z,21.99
2017-04-03T12:16:29.319Z,22.07
2017-04-03T12:17:29.259Z,22.06
2017-04-03T12:18:28.886Z,22.1
2017-04-03T12:19:28.824Z,22.07
2017-04-03T12:20:29.068Z,22
2017-04-03T12:21:29.007Z,21.95
2017-04-03T12:22:28.939Z,22.08
2017-04-03T12:23:28.875Z,22
2017-04-03T12:24:28.818Z,22.02
2017-04-03T12:25:29.055Z,21.98
2017-04-03T12:26:28.683Z,22.07
2017-04-03T12:27:28.325Z,22.04
2017-04-03T12:28:28.563Z,22.02
2017-04-03T12:29:28.497Z,21.96
2017-04-03T12:30:28.435Z,22.04
2017-04-03T12:31:28.084Z,21.91
2017-04-03T12:32:28.319Z,21.99
2017-04-03T12:33:28.243Z,21.96
2017-04-03T12:34:28.183Z,21.92
2017-04-03T12:35:28.122Z,21.98
2017-04-03T12:36:27.756Z,21.96
2017-04-03T12:37:27.994Z,21.93
2017-04-03T12:38:27.938Z,21.99
2017-04-03T12:39:27.869Z,22.02
2017-04-03T12:40:27.804Z,22.04
2017-04-03T12:41:27.442Z,22.1
2017-04-03T12:42:27.680Z,22.07
2017-04-03T12:43:27.617Z,22.1
2017-04-03T12:44:27.556Z,22.1
2017-04-03T12:45:27.495Z,22.15
2017-04-03T12:46:27.431Z,22.1
2017-04-03T12:47:27.362Z,22.15
2017-04-03T12:48:27.002Z,22.14
2017-04-03T12:49:27.247Z,22.15
2017-04-03T12:50:27.180Z,22.15
2017-04-03T12:51:27.115Z,22.2
2017-04-03T12:52:26.751Z,22.13
2017-04-03T12:53:26.990Z,22.14
2017-04-03T12:54:26.624Z,22.08
2017-04-03T12:55:26.870Z,22.08
2017-04-03T12:56:26.803Z,22.13
2017-04-03T12:57:26.441Z,22.06